Time;durP1;ratioP1;P1;durP2;ratioP2;P2;SDS_P1;SDS_P2;PMS_P1;PMS_P2;Temp;Humidity;BMP_temperature;BMP_pressure;BME280_temperature;BME280_humidity;BME280_pressure;Samples;Min_cycle;Max_cycle;Signal;HPM_P1;HPM_P2
2022/10/01 00:01:11;;;;;;;5.65;2.95;;;9.50;84.10;;;;;;5015534;28;20108;-76
2022/10/01 00:03:37;;;;;;;5.80;3.58;;;9.50;83.90;;;;;;5015308;28;20029;-75
2022/10/01 00:06:09;;;;;;;4.70;3.42;;;9.50;83.70;;;;;;5015736;28;20492;-76
2022/10/01 00:08:37;;;;;;;4.93;3.22;;;9.50;83.20;;;;;;5023804;28;20500;-75
2022/10/01 00:11:16;;;;;;;6.38;3.15;;;9.50;82.00;;;;;;5016435;28;20120;-75
2022/10/01 00:13:42;;;;;;;4.88;3.53;;;9.50;81.00;;;;;;5015815;28;20025;-75
2022/10/01 00:16:11;;;;;;;4.65;2.97;;;9.60;80.80;;;;;;5015299;28;20045;-75
2022/10/01 00:18:42;;;;;;;3.72;3.22;;;9.60;80.60;;;;;;5015176;28;20374;-74
2022/10/01 00:21:12;;;;;;;4.57;3.47;;;9.60;80.00;;;;;;5015721;28;20029;-75
2022/10/01 00:23:38;;;;;;;3.85;3.28;;;9.70;79.10;;;;;;5015772;28;20049;-75
2022/10/01 00:26:13;;;;;;;8.15;3.10;;;9.80;78.50;;;;;;5015012;28;20072;-75
2022/10/01 00:28:40;;;;;;;4.18;2.85;;;9.80;77.60;;;;;;5015747;28;20453;-75
2022/10/01 00:31:07;;;;;;;4.60;3.38;;;9.90;76.80;;;;;;5015053;28;20041;-75
2022/10/01 00:33:33;;;;;;;3.15;2.38;;;9.90;76.40;;;;;;5015009;28;20026;-75
2022/10/01 00:35:59;;;;;;;5.22;2.63;;;10.00;76.50;;;;;;5015397;28;20112;-75
2022/10/01 00:38:25;;;;;;;10.57;2.92;;;10.00;76.40;;;;;;5015192;28;20056;-75
2022/10/01 00:40:50;;;;;;;3.63;2.63;;;9.90;76.30;;;;;;5015274;28;20437;-75
2022/10/01 00:43:24;;;;;;;3.38;2.67;;;10.00;76.50;;;;;;5015433;28;20068;-75
2022/10/01 00:45:54;;;;;;;3.42;2.25;;;9.90;77.30;;;;;;5015197;28;20025;-75
2022/10/01 00:48:21;;;;;;;4.22;2.53;;;9.80;76.60;;;;;;5015404;28;20018;-75
2022/10/01 00:50:48;;;;;;;2.67;2.30;;;9.80;76.20;;;;;;5015345;28;20044;-75
2022/10/01 00:53:19;;;;;;;3.78;2.00;;;9.80;76.20;;;;;;5014855;28;20022;-75
2022/10/01 00:55:54;;;;;;;3.00;2.08;;;9.80;76.00;;;;;;5015282;28;20084;-76
2022/10/01 00:58:23;;;;;;;2.65;2.00;;;9.80;76.10;;;;;;5015175;28;20478;-75
2022/10/01 01:00:54;;;;;;;3.10;2.28;;;9.80;75.50;;;;;;5014901;28;20025;-76
2022/10/01 01:03:20;;;;;;;3.78;1.90;;;9.80;75.40;;;;;;5014590;28;20044;-77
2022/10/01 01:05:49;;;;;;;2.80;1.88;;;9.80;75.00;;;;;;5015201;28;20471;-76
2022/10/01 01:08:15;;;;;;;2.00;1.80;;;9.90;74.90;;;;;;5014704;28;20421;-77
2022/10/01 01:11:19;;;;;;;2.80;2.30;;;9.90;74.60;;;;;;5014564;28;20133;-75
2022/10/01 01:13:53;;;;;;;4.07;1.63;;;9.90;73.80;;;;;;5005142;28;20078;-75
2022/10/01 01:16:46;;;;;;;1.77;1.30;;;9.90;74.10;;;;;;5015093;28;20757;-75
2022/10/01 01:19:37;;;;;;;3.83;1.83;;;9.90;73.80;;;;;;5014790;28;20064;-75
2022/10/01 01:22:06;;;;;;;3.67;1.50;;;9.90;73.90;;;;;;5014802;28;20531;-74
2022/10/01 01:24:58;;;;;;;2.13;1.58;;;9.90;74.20;;;;;;5014434;28;20123;-74
2022/10/01 01:27:26;;;;;;;5.32;2.30;;;9.90;74.70;;;;;;5014562;28;20422;-74
2022/10/01 01:30:03;;;;;;;3.47;1.77;;;9.90;75.90;;;;;;5016316;28;20033;-74
2022/10/01 01:32:37;;;;;;;3.00;1.90;;;9.80;76.50;;;;;;5018450;28;20034;-74
2022/10/01 01:35:06;;;;;;;2.90;1.83;;;9.70;77.10;;;;;;5036487;28;20420;-74
2022/10/01 01:37:37;;;;;;;3.50;2.22;;;9.60;77.70;;;;;;5018457;28;20588;-75
2022/10/01 01:40:09;;;;;;;2.67;2.25;;;9.60;78.00;;;;;;5018474;28;20029;-75
2022/10/01 01:42:38;;;;;;;3.63;2.13;;;9.50;78.30;;;;;;5036018;28;20024;-76
2022/10/01 01:45:08;;;;;;;2.28;1.60;;;9.50;79.00;;;;;;5018436;28;20032;-77
2022/10/01 01:47:37;;;;;;;2.70;2.10;;;9.50;77.30;;;;;;5018213;28;20030;-76
2022/10/01 01:50:06;;;;;;;2.92;2.42;;;9.50;77.80;;;;;;5017796;28;20029;-77
2022/10/01 01:52:32;;;;;;;3.75;2.03;;;9.50;78.10;;;;;;5017986;28;20036;-77
2022/10/01 01:54:57;;;;;;;3.35;2.17;;;9.50;78.50;;;;;;5018416;28;20030;-76
2022/10/01 01:57:23;;;;;;;5.80;2.38;;;9.40;78.50;;;;;;5018136;28;20377;-77
2022/10/01 01:59:49;;;;;;;5.55;2.90;;;9.40;78.90;;;;;;5017984;28;20022;-76
2022/10/01 02:02:29;;;;;;;5.35;3.13;;;9.40;78.90;;;;;;5035666;28;20086;-76
2022/10/01 02:04:59;;;;;;;5.75;3.50;;;9.40;78.90;;;;;;5018069;28;20028;-76
2022/10/01 02:07:43;;;;;;;7.65;4.22;;;9.30;78.90;;;;;;5017917;28;20022;-76
2022/10/01 02:10:21;;;;;;;7.40;4.20;;;9.40;79.10;;;;;;5017527;28;20037;-76
2022/10/01 02:13:25;;;;;;;7.03;3.97;;;9.30;78.90;;;;;;5017838;28;20025;-77
2022/10/01 02:15:54;;;;;;;6.10;3.63;;;9.40;78.90;;;;;;5016498;28;20041;-76
2022/10/01 02:18:30;;;;;;;4.65;3.00;;;9.40;78.90;;;;;;5017635;28;20503;-76
2022/10/01 02:21:02;;;;;;;5.85;3.70;;;9.40;78.20;;;;;;5017809;28;20029;-76
2022/10/01 02:23:31;;;;;;;5.25;3.05;;;9.30;78.30;;;;;;5017351;28;20037;-77
2022/10/01 02:26:01;;;;;;;6.18;3.13;;;9.30;78.40;;;;;;5017431;28;20029;-76
2022/10/01 02:28:28;;;;;;;4.60;2.83;;;9.30;78.70;;;;;;5017344;28;20505;-76
2022/10/01 02:30:55;;;;;;;5.97;2.47;;;9.30;78.80;;;;;;5017466;28;20041;-77
2022/10/01 02:33:25;;;;;;;3.10;2.05;;;9.30;78.80;;;;;;5017591;28;20029;-76
2022/10/01 02:35:53;;;;;;;3.60;2.13;;;9.30;78.80;;;;;;5017403;28;20044;-76
2022/10/01 02:38:21;;;;;;;2.20;1.45;;;9.40;78.70;;;;;;5017454;28;20108;-76
2022/10/01 02:40:51;;;;;;;2.38;1.35;;;9.40;78.70;;;;;;5017061;28;20075;-77
2022/10/01 02:43:22;;;;;;;3.22;1.83;;;9.40;78.80;;;;;;5017398;28;20033;-76
2022/10/01 02:45:58;;;;;;;3.65;1.55;;;9.30;78.70;;;;;;5017297;28;20021;-76
2022/10/01 02:48:24;;;;;;;1.80;1.67;;;9.40;78.70;;;;;;5017255;28;20049;-76
2022/10/01 02:50:51;;;;;;;1.52;1.10;;;9.40;78.60;;;;;;5017000;28;20117;-76
2022/10/01 02:53:44;;;;;;;2.55;1.63;;;9.40;76.00;;;;;;5016958;28;20032;-76
2022/10/01 02:56:13;;;;;;;1.38;1.00;;;9.50;75.70;;;;;;5016383;28;20402;-76
2022/10/01 02:58:40;;;;;;;1.13;1.00;;;9.50;75.40;;;;;;5017017;28;20108;-79
2022/10/01 03:01:06;;;;;;;1.25;0.73;;;9.60;75.70;;;;;;5034635;28;20588;-75
2022/10/01 03:03:31;;;;;;;1.88;1.30;;;9.70;74.90;;;;;;5016772;28;20032;-76
2022/10/01 03:05:57;;;;;;;1.50;1.05;;;9.70;75.30;;;;;;5016693;28;20033;-76
2022/10/01 03:08:22;;;;;;;0.88;0.80;;;9.60;76.20;;;;;;5016495;28;20022;-76
2022/10/01 03:10:49;;;;;;;0.70;0.60;;;9.70;73.40;;;;;;5016752;28;20047;-76
2022/10/01 03:13:17;;;;;;;0.68;0.68;;;9.70;72.20;;;;;;5016727;28;20029;-76
2022/10/01 03:15:45;;;;;;;1.70;0.88;;;9.80;71.90;;;;;;5016269;28;20490;-76
2022/10/01 03:18:10;;;;;;;0.60;0.60;;;9.80;71.20;;;;;;5016665;28;20601;-76
2022/10/01 03:20:36;;;;;;;1.20;0.85;;;9.90;71.00;;;;;;5016509;28;20057;-76
2022/10/01 03:23:02;;;;;;;0.98;0.52;;;9.90;69.60;;;;;;5016305;28;20394;-77
2022/10/01 03:25:27;;;;;;;1.00;0.65;;;10.00;68.50;;;;;;5016579;28;20056;-76
2022/10/01 03:27:53;;;;;;;1.73;0.50;;;10.00;67.20;;;;;;5016502;28;20033;-76
2022/10/01 03:30:18;;;;;;;0.90;0.50;;;10.10;67.70;;;;;;5016210;28;20073;-77
2022/10/01 03:32:44;;;;;;;3.20;0.80;;;10.10;66.10;;;;;;5016434;28;20026;-76
2022/10/01 03:35:09;;;;;;;2.63;0.77;;;10.20;66.30;;;;;;5016071;28;20513;-76
2022/10/01 03:37:35;;;;;;;0.60;0.60;;;10.20;66.40;;;;;;5034099;28;20029;-76
2022/10/01 03:40:01;;;;;;;1.20;1.00;;;10.10;67.20;;;;;;5016250;28;20116;-76
2022/10/01 03:42:27;;;;;;;0.50;0.50;;;10.10;67.00;;;;;;5016140;28;20026;-76
2022/10/01 03:44:52;;;;;;;0.82;0.60;;;10.10;66.30;;;;;;5016084;28;20021;-76
2022/10/01 03:47:18;;;;;;;1.25;0.68;;;10.10;66.10;;;;;;5015959;28;20432;-76
2022/10/01 03:49:43;;;;;;;0.70;0.65;;;10.20;66.10;;;;;;5015609;28;20026;-76
2022/10/01 03:52:09;;;;;;;1.13;0.65;;;10.20;65.80;;;;;;5015199;28;20033;-76
2022/10/01 03:54:34;;;;;;;2.53;0.47;;;10.20;66.50;;;;;;5015915;28;20109;-76
2022/10/01 03:57:00;;;;;;;2.85;0.98;;;10.10;66.60;;;;;;5015831;28;20129;-76
2022/10/01 03:59:26;;;;;;;0.93;0.80;;;10.10;66.80;;;;;;5015670;28;20104;-76
2022/10/01 04:01:52;;;;;;;1.17;0.70;;;10.10;67.20;;;;;;5015432;28;20021;-76
2022/10/01 04:04:19;;;;;;;1.00;0.68;;;10.10;67.60;;;;;;5015474;28;20037;-76
2022/10/01 04:06:44;;;;;;;1.95;0.90;;;10.20;67.80;;;;;;5015562;28;20072;-77
2022/10/01 04:09:10;;;;;;;1.92;0.80;;;10.10;66.90;;;;;;5033100;28;20029;-76
2022/10/01 04:11:37;;;;;;;4.60;0.85;;;10.10;67.70;;;;;;5015592;28;20113;-76
2022/10/01 04:14:03;;;;;;;1.33;0.52;;;10.10;67.50;;;;;;5015043;28;20112;-76
2022/10/01 04:16:28;;;;;;;2.47;0.90;;;10.10;67.60;;;;;;5015552;28;20545;-75
2022/10/01 04:18:54;;;;;;;2.28;0.65;;;10.10;68.00;;;;;;5015403;28;20014;-76
2022/10/01 04:21:19;;;;;;;1.95;1.17;;;10.00;67.90;;;;;;5015047;28;20071;-77
2022/10/01 04:23:45;;;;;;;2.97;0.90;;;10.10;67.90;;;;;;5015479;28;20470;-75
2022/10/01 04:26:10;;;;;;;3.75;0.88;;;10.20;67.50;;;;;;5015549;28;20160;-75
2022/10/01 04:28:36;;;;;;;1.48;0.82;;;10.10;67.60;;;;;;5015427;28;20041;-75
2022/10/01 04:33:47;;;;;;;1.08;0.93;;;10.10;69.20;;;;;;5033263;28;20386;-75
2022/10/01 04:36:12;;;;;;;2.28;1.15;;;10.10;67.40;;;;;;5015252;28;20026;-75
2022/10/01 04:38:38;;;;;;;1.33;0.90;;;10.20;67.30;;;;;;5015238;28;20487;-76
2022/10/01 04:41:04;;;;;;;1.77;1.17;;;10.30;67.60;;;;;;5032756;28;20022;-77
2022/10/01 04:43:29;;;;;;;2.25;1.00;;;10.20;67.40;;;;;;5015200;28;20022;-76
2022/10/01 04:45:55;;;;;;;1.60;1.00;;;10.20;67.50;;;;;;5015181;28;20121;-76
2022/10/01 04:48:20;;;;;;;4.32;1.38;;;10.20;68.70;;;;;;5015090;28;20390;-80
2022/10/01 04:50:46;;;;;;;3.72;1.23;;;10.20;68.10;;;;;;5014826;28;20079;-76
2022/10/01 04:53:11;;;;;;;2.95;1.08;;;10.20;67.80;;;;;;5015336;28;20033;-77
2022/10/01 04:55:37;;;;;;;3.08;1.20;;;10.20;67.80;;;;;;5032738;28;20029;-76
2022/10/01 04:58:03;;;;;;;1.92;1.17;;;10.20;67.70;;;;;;5015331;28;20032;-76
2022/10/01 05:00:29;;;;;;;2.67;0.98;;;10.20;67.50;;;;;;5014825;28;20021;-81
2022/10/01 05:02:54;;;;;;;2.85;1.17;;;10.30;66.80;;;;;;5014966;28;20030;-78
2022/10/01 05:05:22;;;;;;;3.25;1.10;;;10.30;66.30;;;;;;5017363;28;20025;-76
2022/10/01 05:07:48;;;;;;;0.88;0.80;;;10.30;66.50;;;;;;5019100;28;20030;-76
2022/10/01 05:10:18;;;;;;;2.80;1.25;;;10.30;65.90;;;;;;5018875;28;20080;-77
2022/10/01 05:12:45;;;;;;;4.28;1.10;;;10.30;66.00;;;;;;5018841;28;20108;-75
2022/10/01 05:15:11;;;;;;;3.13;1.10;;;10.40;65.70;;;;;;5018642;28;20490;-76
2022/10/01 05:17:37;;;;;;;2.45;1.08;;;10.40;65.50;;;;;;5018673;28;20033;-74
2022/10/01 05:20:05;;;;;;;2.65;1.33;;;10.50;65.90;;;;;;5018799;28;20454;-75
2022/10/01 05:22:31;;;;;;;1.35;1.10;;;10.40;65.50;;;;;;5018376;28;20094;-82
2022/10/01 05:25:01;;;;;;;2.20;1.00;;;10.40;65.10;;;;;;5018730;28;20541;-75
2022/10/01 05:27:27;;;;;;;1.42;0.80;;;10.50;65.80;;;;;;5018593;28;20026;-75
2022/10/01 05:29:52;;;;;;;1.85;1.30;;;10.50;65.10;;;;;;5018282;28;20116;-76
2022/10/01 05:32:18;;;;;;;0.90;0.80;;;10.50;65.00;;;;;;5018220;28;20156;-75
2022/10/01 05:34:43;;;;;;;1.65;1.00;;;10.50;65.00;;;;;;5018611;28;20049;-74
2022/10/01 05:37:10;;;;;;;2.15;1.00;;;10.50;65.30;;;;;;5018752;28;20465;-74
2022/10/01 05:39:36;;;;;;;2.83;0.80;;;10.50;66.00;;;;;;5034917;28;20041;-75
2022/10/01 05:42:02;;;;;;;2.00;1.27;;;10.40;65.70;;;;;;5018163;28;20021;-74
2022/10/01 05:44:28;;;;;;;4.22;0.95;;;10.50;66.10;;;;;;5018223;28;20026;-75
2022/10/01 05:46:53;;;;;;;1.33;0.75;;;10.50;65.70;;;;;;5014571;28;20089;-77
2022/10/01 05:49:19;;;;;;;2.58;1.08;;;10.50;65.50;;;;;;5031181;28;20076;-76
2022/10/01 05:51:45;;;;;;;3.20;1.13;;;10.50;66.20;;;;;;5015142;28;20053;-76
2022/10/01 05:54:12;;;;;;;1.50;1.05;;;10.50;65.40;;;;;;5031399;28;20080;-74
2022/10/01 05:56:38;;;;;;;3.15;1.27;;;10.50;65.90;;;;;;5031117;28;20038;-77
2022/10/01 05:59:04;;;;;;;1.55;0.90;;;10.50;66.10;;;;;;5031396;28;20028;-78
2022/10/01 06:01:33;;;;;;;2.33;1.20;;;10.40;65.60;;;;;;5030940;28;20026;-75
2022/10/01 06:03:59;;;;;;;2.67;1.30;;;10.50;64.90;;;;;;5015758;28;20026;-76
2022/10/01 06:06:38;;;;;;;3.88;1.20;;;10.50;64.50;;;;;;5030749;28;20092;-77
2022/10/01 06:09:04;;;;;;;3.70;1.42;;;10.60;64.40;;;;;;5014576;28;20030;-74
2022/10/01 06:11:29;;;;;;;1.92;1.13;;;10.60;64.20;;;;;;5030612;28;20038;-76
2022/10/01 06:13:56;;;;;;;1.73;0.93;;;10.70;63.20;;;;;;5030469;28;20125;-76
2022/10/01 06:16:25;;;;;;;2.13;0.90;;;10.70;62.80;;;;;;5013801;28;20054;-75
2022/10/01 06:18:56;;;;;;;1.77;1.30;;;10.80;63.20;;;;;;5014835;28;20018;-75
2022/10/01 06:21:23;;;;;;;2.35;1.20;;;10.80;63.20;;;;;;5014383;28;20026;-74
2022/10/01 06:23:51;;;;;;;2.05;1.00;;;10.80;63.20;;;;;;5014011;28;20029;-76
2022/10/01 06:26:18;;;;;;;2.72;1.17;;;10.80;63.30;;;;;;5013770;28;20398;-76
2022/10/01 06:28:43;;;;;;;2.83;1.30;;;10.80;63.30;;;;;;5014289;28;20033;-76
2022/10/01 06:31:09;;;;;;;1.70;1.10;;;10.80;64.00;;;;;;5014035;28;20045;-76
2022/10/01 06:33:35;;;;;;;1.52;1.15;;;10.80;63.60;;;;;;5013610;28;20117;-74
2022/10/01 06:36:03;;;;;;;2.80;1.02;;;10.80;63.80;;;;;;5013780;28;20045;-74
2022/10/01 06:38:29;;;;;;;1.60;0.75;;;10.80;64.10;;;;;;5013431;28;20466;-74
2022/10/01 06:41:00;;;;;;;1.67;1.02;;;10.80;64.30;;;;;;5014689;28;20060;-74
2022/10/01 06:43:28;;;;;;;1.42;0.82;;;10.80;63.80;;;;;;5013742;28;20025;-75
2022/10/01 06:45:56;;;;;;;1.17;0.90;;;10.90;64.10;;;;;;5014915;28;20083;-74
2022/10/01 06:48:22;;;;;;;3.45;1.02;;;10.90;64.30;;;;;;5013688;28;20434;-75
2022/10/01 06:50:49;;;;;;;3.05;1.10;;;10.90;64.20;;;;;;5013471;28;20041;-75
2022/10/01 06:53:17;;;;;;;2.60;0.80;;;10.90;64.10;;;;;;5013593;28;20449;-76
2022/10/01 06:55:43;;;;;;;2.15;0.90;;;10.90;64.60;;;;;;5013407;28;20029;-75
2022/10/01 06:58:19;;;;;;;1.25;0.90;;;10.90;64.50;;;;;;5013102;28;20065;-75
2022/10/01 07:00:46;;;;;;;5.25;0.80;;;11.00;63.10;;;;;;5013396;28;20018;-76
2022/10/01 07:03:18;;;;;;;1.90;1.15;;;11.00;62.50;;;;;;4996717;28;20029;-76
2022/10/01 07:05:44;;;;;;;2.00;0.90;;;11.00;63.30;;;;;;5013245;28;20026;-76
2022/10/01 07:08:11;;;;;;;1.17;0.68;;;10.90;63.40;;;;;;5014438;28;20157;-75
2022/10/01 07:10:38;;;;;;;2.85;0.88;;;10.80;64.20;;;;;;5015908;28;20037;-75
2022/10/01 07:13:09;;;;;;;5.40;0.85;;;10.80;64.10;;;;;;5016441;28;20048;-78
2022/10/01 07:15:35;;;;;;;1.40;1.00;;;10.90;63.80;;;;;;5016400;28;20049;-77
2022/10/01 07:18:02;;;;;;;1.48;1.00;;;10.90;64.20;;;;;;5034078;28;20401;-74
2022/10/01 07:20:27;;;;;;;7.40;1.20;;;11.00;64.60;;;;;;5016154;28;20032;-73
2022/10/01 07:22:59;;;;;;;2.63;1.23;;;11.00;64.30;;;;;;5016463;28;20036;-76
2022/10/01 07:25:26;;;;;;;2.10;0.70;;;11.00;64.30;;;;;;5016051;28;20083;-80
2022/10/01 07:28:04;;;;;;;2.92;1.05;;;11.10;63.60;;;;;;5015106;28;20452;-80
2022/10/01 07:30:30;;;;;;;1.90;0.77;;;11.00;63.90;;;;;;5016117;28;20036;-76
2022/10/01 07:32:56;;;;;;;2.72;1.50;;;11.00;63.70;;;;;;5016093;28;20424;-76
2022/10/01 07:35:22;;;;;;;4.53;1.00;;;10.90;64.90;;;;;;5016228;28;20026;-76
2022/10/01 07:37:48;;;;;;;4.00;0.75;;;10.90;65.40;;;;;;5016068;28;20109;-76
2022/10/01 07:40:16;;;;;;;0.75;0.70;;;10.80;65.50;;;;;;5015706;28;20591;-74
2022/10/01 07:42:43;;;;;;;3.28;0.80;;;10.80;66.30;;;;;;5033798;28;20025;-75
2022/10/01 07:45:09;;;;;;;1.23;0.77;;;10.80;67.90;;;;;;5016047;28;20381;-75
2022/10/01 07:47:35;;;;;;;3.55;1.05;;;10.70;68.40;;;;;;5015925;28;20071;-75
2022/10/01 07:50:02;;;;;;;0.60;0.60;;;10.70;68.50;;;;;;5015792;28;20030;-75
2022/10/01 07:52:28;;;;;;;3.28;0.60;;;10.60;68.40;;;;;;5015196;28;20040;-75
2022/10/01 07:54:53;;;;;;;1.20;0.75;;;10.70;68.70;;;;;;5015871;28;20029;-75
2022/10/01 07:57:19;;;;;;;0.95;0.65;;;10.60;69.00;;;;;;5015982;28;20025;-75
2022/10/01 07:59:44;;;;;;;0.93;0.60;;;10.60;68.80;;;;;;5015748;28;20043;-75
2022/10/01 08:02:14;;;;;;;1.27;0.80;;;10.70;68.50;;;;;;5015299;28;20116;-76
2022/10/01 08:07:24;;;;;;;3.53;1.17;;;10.70;68.70;;;;;;5033369;28;20370;-75
2022/10/01 08:09:53;;;;;;;1.15;0.80;;;10.70;68.80;;;;;;5015321;28;20013;-75
2022/10/01 08:12:19;;;;;;;1.48;0.90;;;10.70;68.80;;;;;;5014927;28;20052;-76
2022/10/01 08:14:46;;;;;;;1.17;0.90;;;10.70;68.80;;;;;;5015177;28;20514;-76
2022/10/01 08:17:15;;;;;;;4.35;1.08;;;10.80;68.60;;;;;;5015117;28;20394;-75
2022/10/01 08:19:41;;;;;;;0.90;0.68;;;10.80;69.00;;;;;;5015102;28;20021;-75
2022/10/01 08:22:06;;;;;;;3.08;0.90;;;10.70;69.50;;;;;;5015357;28;20484;-75
2022/10/01 08:24:33;;;;;;;1.65;0.77;;;10.70;69.90;;;;;;5014709;28;20075;-75
2022/10/01 08:26:59;;;;;;;0.70;0.70;;;10.70;70.30;;;;;;5014785;28;20470;-75
2022/10/01 08:29:26;;;;;;;2.92;0.85;;;10.70;70.30;;;;;;5015398;28;20072;-77
2022/10/01 08:31:52;;;;;;;0.85;0.70;;;10.70;70.50;;;;;;5014832;28;20091;-76
2022/10/01 08:34:18;;;;;;;1.08;0.90;;;10.60;69.70;;;;;;5031562;28;20060;-75
2022/10/01 08:36:44;;;;;;;3.10;1.00;;;10.70;69.70;;;;;;5015302;28;20025;-75
2022/10/01 08:39:13;;;;;;;1.65;0.70;;;10.70;69.50;;;;;;5015143;28;20025;-75
2022/10/01 08:42:27;;;;;;;1.23;0.60;;;10.70;71.20;;;;;;5015471;28;20022;-76
2022/10/01 08:44:53;;;;;;;1.23;0.65;;;10.60;71.00;;;;;;5012956;28;20080;-74
2022/10/01 08:47:25;;;;;;;5.18;0.80;;;10.60;71.10;;;;;;5014800;28;20390;-75
2022/10/01 08:49:54;;;;;;;6.13;0.65;;;10.60;70.40;;;;;;5014673;28;20026;-75
2022/10/01 08:52:24;;;;;;;0.82;0.45;;;10.60;71.10;;;;;;5032263;28;20033;-75
2022/10/01 08:55:03;;;;;;;1.60;0.50;;;10.70;69.50;;;;;;5014236;28;20426;-75
2022/10/01 08:57:38;;;;;;;0.63;0.50;;;10.60;69.50;;;;;;5032069;28;20025;-76
2022/10/01 09:00:15;;;;;;;1.00;0.50;;;10.70;69.00;;;;;;5014757;28;20029;-76
2022/10/01 09:02:42;;;;;;;1.95;0.60;;;10.70;67.90;;;;;;5014693;28;20064;-75
2022/10/01 09:05:23;;;;;;;2.55;0.40;;;10.80;67.20;;;;;;5014673;28;20078;-78
2022/10/01 09:07:58;;;;;;;2.33;1.63;;;10.80;68.20;;;;;;5013554;28;20116;-77
2022/10/01 09:10:27;;;;;;;0.95;0.38;;;10.80;67.60;;;;;;5013150;28;20026;-74
2022/10/01 09:13:27;;;;;;;1.73;0.68;;;10.90;67.70;;;;;;5013420;28;20025;-77
2022/10/01 09:16:09;;;;;;;3.22;0.80;;;10.90;67.70;;;;;;5012982;28;20037;-76
2022/10/01 09:18:47;;;;;;;1.65;0.63;;;10.80;69.10;;;;;;5028487;28;20021;-76
2022/10/01 09:21:21;;;;;;;1.58;0.60;;;10.80;68.70;;;;;;5013092;28;20095;-74
2022/10/01 09:24:11;;;;;;;0.82;0.40;;;10.70;69.20;;;;;;5011405;28;20027;-75
2022/10/01 09:26:46;;;;;;;2.35;0.63;;;10.70;69.90;;;;;;5012932;28;20337;-76
2022/10/01 09:29:14;;;;;;;;;;;10.70;69.90;;;;;;5013686;28;20113;-76
2022/10/01 09:31:44;;;;;;;3.72;0.90;;;10.70;69.10;;;;;;5028180;28;19913;-75
2022/10/01 09:34:14;;;;;;;1.20;0.50;;;10.70;70.00;;;;;;5030681;28;20033;-76
2022/10/01 09:37:05;;;;;;;0.60;0.50;;;10.80;70.20;;;;;;5012772;28;20028;-76
2022/10/01 09:39:38;;;;;;;1.55;0.77;;;10.80;70.00;;;;;;5012351;28;20018;-76
2022/10/01 09:42:03;;;;;;;3.30;0.68;;;10.70;70.70;;;;;;5011849;28;20462;-77
2022/10/01 09:44:31;;;;;;;1.08;0.70;;;10.70;71.30;;;;;;5014127;28;20025;-76
2022/10/01 09:46:57;;;;;;;1.88;0.60;;;10.70;71.60;;;;;;5030015;28;20076;-76
2022/10/01 09:49:38;;;;;;;2.08;0.80;;;10.80;71.70;;;;;;5030348;28;20030;-76
2022/10/01 09:52:12;;;;;;;0.60;0.50;;;10.80;71.10;;;;;;5033797;28;20486;-76
2022/10/01 09:54:44;;;;;;;0.80;0.57;;;11.00;70.80;;;;;;5015593;28;20045;-76
2022/10/01 09:57:21;;;;;;;1.38;0.60;;;10.90;70.90;;;;;;5015856;28;20156;-74
2022/10/01 10:00:08;;;;;;;1.67;0.50;;;11.00;71.30;;;;;;5015355;28;20023;-77
2022/10/01 10:02:42;;;;;;;0.47;0.30;;;11.00;71.70;;;;;;5015901;28;20023;-75
2022/10/01 10:05:13;;;;;;;2.50;1.15;;;11.10;71.50;;;;;;5033775;28;20056;-76
2022/10/01 10:07:42;;;;;;;1.58;0.82;;;11.10;71.50;;;;;;5030198;28;20183;-75
2022/10/01 10:10:23;;;;;;;2.65;0.60;;;11.10;71.40;;;;;;5032456;28;20092;-75
2022/10/01 10:12:59;;;;;;;0.80;0.50;;;11.10;72.80;;;;;;5015389;28;20059;-76
2022/10/01 10:15:26;;;;;;;0.63;0.50;;;11.10;73.40;;;;;;5014696;28;20120;-76
2022/10/01 10:17:57;;;;;;;0.65;0.38;;;11.00;75.70;;;;;;5032893;28;20046;-75
2022/10/01 10:20:36;;;;;;;0.80;0.38;;;11.00;74.00;;;;;;5016131;28;20026;-76
2022/10/01 10:23:17;;;;;;;2.65;0.82;;;11.00;75.40;;;;;;5015931;28;20450;-76
2022/10/01 10:26:04;;;;;;;1.00;0.55;;;11.10;74.50;;;;;;5013938;28;20032;-75
2022/10/01 10:28:43;;;;;;;0.90;0.50;;;11.10;74.50;;;;;;5015954;28;20103;-75
2022/10/01 10:31:23;;;;;;;1.17;0.55;;;11.10;75.80;;;;;;5017390;28;20047;-78
2022/10/01 10:34:22;;;;;;;1.70;0.65;;;11.00;76.70;;;;;;5016758;28;20497;-77
2022/10/01 10:36:56;;;;;;;0.75;0.47;;;10.90;78.20;;;;;;5033921;28;20029;-77
2022/10/01 10:39:32;;;;;;;1.63;0.40;;;10.90;78.50;;;;;;5016601;28;20037;-77
2022/10/01 10:42:26;;;;;;;0.80;0.70;;;10.90;78.70;;;;;;5016687;28;20160;-76
2022/10/01 10:44:54;;;;;;;0.73;0.70;;;10.80;78.90;;;;;;5017094;28;20021;-77
2022/10/01 10:47:21;;;;;;;0.75;0.55;;;10.90;78.80;;;;;;5016478;28;20029;-77
2022/10/01 10:49:53;;;;;;;1.20;0.50;;;11.00;77.90;;;;;;5016883;28;20022;-77
2022/10/01 10:52:35;;;;;;;2.47;0.80;;;11.10;78.60;;;;;;5016723;28;20056;-75
2022/10/01 10:55:21;;;;;;;0.73;0.30;;;11.20;78.20;;;;;;5016580;28;20474;-75
2022/10/01 10:57:47;;;;;;;0.82;0.38;;;11.20;77.90;;;;;;5006069;28;20131;-76
2022/10/01 11:00:16;;;;;;;0.35;0.35;;;11.30;79.60;;;;;;5016379;28;20105;-75
2022/10/01 11:02:55;;;;;;;2.78;0.90;;;11.40;78.40;;;;;;5016050;28;20040;-76
2022/10/01 11:05:23;;;;;;;1.63;0.73;;;11.30;79.30;;;;;;5015975;28;20500;-76
2022/10/01 11:07:54;;;;;;;0.43;0.40;;;11.30;79.50;;;;;;5015996;28;20025;-76
2022/10/01 11:10:28;;;;;;;0.80;0.50;;;11.30;80.70;;;;;;5033704;28;20447;-76
2022/10/01 11:12:59;;;;;;;1.08;0.85;;;11.20;81.00;;;;;;5016086;28;20124;-75
2022/10/01 11:15:59;;;;;;;1.40;0.65;;;11.10;80.80;;;;;;5015892;28;20520;-76
2022/10/01 11:18:51;;;;;;;1.05;0.60;;;11.20;80.80;;;;;;5016632;28;20481;-75
2022/10/01 11:21:38;;;;;;;1.73;0.75;;;11.20;81.20;;;;;;5016439;28;20028;-77
2022/10/01 11:24:03;;;;;;;1.38;0.50;;;11.20;80.80;;;;;;5016163;28;20478;-76
2022/10/01 11:27:09;;;;;;;1.95;1.27;;;11.20;80.20;;;;;;5016177;28;20025;-76
2022/10/01 11:30:26;;;;;;;0.95;0.77;;;11.30;81.00;;;;;;5015969;28;20474;-75
2022/10/01 11:33:32;;;;;;;0.63;0.30;;;11.30;81.10;;;;;;5011968;28;20038;-76
2022/10/01 11:36:18;;;;;;;0.98;0.60;;;11.40;80.80;;;;;;5007839;28;20060;-76
2022/10/01 11:38:53;;;;;;;1.23;0.77;;;11.50;80.60;;;;;;5014027;28;20022;-77
2022/10/01 11:41:32;;;;;;;2.75;0.75;;;11.50;80.20;;;;;;5016144;28;20125;-77
2022/10/01 11:44:23;;;;;;;1.55;0.70;;;11.50;80.00;;;;;;5032581;28;20068;-76
2022/10/01 11:47:12;;;;;;;0.55;0.45;;;11.50;80.20;;;;;;5015598;28;20389;-75
2022/10/01 11:49:41;;;;;;;2.95;0.68;;;11.70;79.70;;;;;;5015984;28;20032;-76
2022/10/01 11:52:16;;;;;;;0.95;0.70;;;11.70;80.10;;;;;;5015912;28;20034;-76
2022/10/01 11:58:49;;;;;;;0.47;0.35;;;11.70;80.60;;;;;;5015860;28;20025;-76
2022/10/01 12:00:28;;;;;;;0.57;0.57;;;11.50;81.20;;;;;;5032370;28;20084;-76
2022/10/01 12:03:00;;;;;;;0.70;0.70;;;11.40;81.10;;;;;;5015585;28;20144;-76
2022/10/01 12:05:30;;;;;;;0.68;0.57;;;11.40;81.10;;;;;;5033309;28;20057;-76
2022/10/01 12:08:03;;;;;;;7.45;0.70;;;11.60;80.60;;;;;;5015414;28;20087;-76
2022/10/01 12:10:46;;;;;;;1.27;0.57;;;11.60;80.20;;;;;;5015065;28;20061;-76
2022/10/01 12:13:15;;;;;;;1.73;0.60;;;11.70;80.10;;;;;;5032607;28;20486;-77
2022/10/01 12:16:05;;;;;;;0.90;0.45;;;11.80;80.20;;;;;;5014892;28;20103;-76
2022/10/01 12:18:39;;;;;;;1.00;0.52;;;11.90;79.90;;;;;;5015048;28;20033;-76
2022/10/01 12:21:19;;;;;;;0.75;0.50;;;12.00;79.80;;;;;;5015172;28;20083;-76
2022/10/01 12:23:52;;;;;;;1.88;0.70;;;12.10;79.40;;;;;;5015346;28;20021;-76
2022/10/01 12:26:43;;;;;;;1.80;0.40;;;12.10;79.70;;;;;;5015303;28;20029;-76
2022/10/01 12:29:37;;;;;;;0.52;0.45;;;12.20;78.90;;;;;;5014862;28;20116;-76
2022/10/01 12:32:22;;;;;;;1.13;0.55;;;12.30;78.80;;;;;;5015054;28;20495;-76
2022/10/01 12:35:12;;;;;;;0.80;0.52;;;12.30;79.00;;;;;;5015147;28;20030;-76
2022/10/01 12:38:05;;;;;;;1.15;0.50;;;12.40;78.50;;;;;;5015153;28;20036;-76
2022/10/01 12:40:48;;;;;;;2.08;0.60;;;12.40;77.70;;;;;;5014988;28;20028;-75
2022/10/01 12:43:41;;;;;;;0.77;0.30;;;12.50;77.70;;;;;;5014636;28;20029;-74
2022/10/01 12:46:49;;;;;;;0.90;0.52;;;12.50;77.50;;;;;;5014945;28;20018;-76
2022/10/01 12:49:22;;;;;;;0.50;0.38;;;12.60;77.60;;;;;;5014783;28;20116;-75
2022/10/01 12:52:18;;;;;;;2.22;0.43;;;12.50;78.10;;;;;;5032514;28;20115;-76
2022/10/01 12:55:25;;;;;;;0.30;0.30;;;12.50;78.80;;;;;;5014682;28;20061;-77
2022/10/01 12:58:27;;;;;;;4.60;0.50;;;12.50;79.00;;;;;;4995140;28;20036;-76
2022/10/01 13:01:11;;;;;;;0.40;0.38;;;12.50;78.60;;;;;;5014681;28;20458;-75
2022/10/01 13:03:55;;;;;;;0.98;0.70;;;12.60;78.80;;;;;;5014657;28;20485;-78
2022/10/01 13:06:23;;;;;;;0.40;0.30;;;12.50;79.10;;;;;;5014522;28;20437;-76
2022/10/01 13:09:08;;;;;;;1.17;0.55;;;12.70;79.90;;;;;;5014742;28;20473;-81
2022/10/01 13:11:50;;;;;;;1.73;0.80;;;12.70;78.80;;;;;;5014676;28;20037;-78
2022/10/01 13:14:17;;;;;;;1.27;0.20;;;12.80;78.50;;;;;;5014627;28;20045;-78
2022/10/01 13:17:08;;;;;;;1.00;0.50;;;12.90;78.10;;;;;;5014523;28;20235;-76
2022/10/01 13:19:46;;;;;;;0.40;0.40;;;12.90;78.10;;;;;;5014407;28;20083;-76
2022/10/01 13:22:24;;;;;;;1.48;0.65;;;13.00;77.80;;;;;;5014438;28;20524;-76
2022/10/01 13:24:56;;;;;;;0.57;0.20;;;13.00;78.00;;;;;;5030995;28;20029;-76